Time;durP1;ratioP1;P1;durP2;ratioP2;P2;SDS_P1;SDS_P2;PMS_P1;PMS_P2;Temp;Humidity;BMP_temperature;BMP_pressure;BME280_temperature;BME280_humidity;BME280_pressure;Samples;Min_cycle;Max_cycle;Signal;HPM_P1;HPM_P2
2021/06/03 00:01:58;;;;;;;;;24.00;23.25;;;;;;;;5003701;28;8846;-79
2021/06/03 00:04:25;;;;;;;;;26.00;22.75;;;;;;;;5001169;28;8863;-78
2021/06/03 00:06:52;;;;;;;;;23.50;23.50;;;;;;;;5006419;28;8871;-79
2021/06/03 00:09:19;;;;;;;;;26.75;23.75;;;;;;;;4999523;28;8911;-83
2021/06/03 00:11:46;;;;;;;;;26.25;22.25;;;;;;;;5017235;28;9006;-87
2021/06/03 00:14:13;;;;;;;;;23.25;23.25;;;;;;;;5011766;28;8858;-82
2021/06/03 00:16:40;;;;;;;;;18.25;18.25;;;;;;;;5009790;28;8952;-85
2021/06/03 00:19:10;;;;;;;;;19.25;19.25;;;;;;;;5014848;28;8854;-83
2021/06/03 00:21:40;;;;;;;;;23.25;23.25;;;;;;;;4996201;28;9638;-77
2021/06/03 00:24:07;;;;;;;;;24.50;23.25;;;;;;;;5003843;28;9547;-83
2021/06/03 00:26:34;;;;;;;;;23.00;20.00;;;;;;;;5006305;28;8883;-86
2021/06/03 00:29:01;;;;;;;;;22.25;22.25;;;;;;;;5008374;28;8980;-78
2021/06/03 00:31:28;;;;;;;;;25.00;19.50;;;;;;;;5006249;28;8857;-81
2021/06/03 00:33:55;;;;;;;;;18.50;18.50;;;;;;;;5005904;28;8999;-85
2021/06/03 00:36:23;;;;;;;;;23.50;21.25;;;;;;;;4998769;28;8866;-84
2021/06/03 00:38:50;;;;;;;;;22.25;22.25;;;;;;;;5004135;28;8870;-83
2021/06/03 00:41:19;;;;;;;;;19.25;18.75;;;;;;;;5008605;28;9087;-78
2021/06/03 00:43:45;;;;;;;;;22.00;22.00;;;;;;;;5005459;28;8888;-88
2021/06/03 00:46:12;;;;;;;;;21.00;20.50;;;;;;;;5004357;28;8885;-81
2021/06/03 00:48:39;;;;;;;;;21.75;20.25;;;;;;;;5005274;28;8932;-78
2021/06/03 00:51:08;;;;;;;;;21.00;21.00;;;;;;;;5002234;28;8881;-76
2021/06/03 00:53:37;;;;;;;;;22.00;21.00;;;;;;;;5002418;28;8835;-84
2021/06/03 00:56:05;;;;;;;;;22.25;20.00;;;;;;;;5006291;28;9631;-89
2021/06/03 00:58:34;;;;;;;;;21.25;18.50;;;;;;;;5007382;28;8929;-84
2021/06/03 01:01:01;;;;;;;;;19.25;19.25;;;;;;;;5004529;28;8827;-84
2021/06/03 01:03:29;;;;;;;;;18.75;17.25;;;;;;;;5013088;28;8890;-87
2021/06/03 01:05:59;;;;;;;;;18.25;18.00;;;;;;;;5003007;28;8862;-88
2021/06/03 01:08:29;;;;;;;;;20.25;18.00;;;;;;;;5009164;28;8866;-88
2021/06/03 01:11:01;;;;;;;;;19.50;18.75;;;;;;;;5016313;28;8890;-80
2021/06/03 01:13:34;;;;;;;;;23.25;23.25;;;;;;;;5007577;28;8981;-81
2021/06/03 01:16:04;;;;;;;;;24.25;21.75;;;;;;;;5012896;28;9632;-78
2021/06/03 01:18:33;;;;;;;;;24.75;21.25;;;;;;;;4998538;28;8981;-77
2021/06/03 01:21:00;;;;;;;;;22.50;22.50;;;;;;;;5006352;28;8873;-85
2021/06/03 01:23:29;;;;;;;;;21.50;21.50;;;;;;;;5004737;28;8905;-84
2021/06/03 01:25:58;;;;;;;;;21.25;21.25;;;;;;;;4999930;28;8905;-82
2021/06/03 01:28:26;;;;;;;;;22.25;22.25;;;;;;;;5009402;28;8993;-84
2021/06/03 01:30:55;;;;;;;;;21.50;21.50;;;;;;;;4991454;28;8844;-85
2021/06/03 01:33:24;;;;;;;;;20.00;20.00;;;;;;;;5006042;28;8854;-79
2021/06/03 01:35:54;;;;;;;;;19.50;18.50;;;;;;;;5000827;28;8909;-83
2021/06/03 01:38:24;;;;;;;;;27.00;24.00;;;;;;;;5003122;28;8862;-86
2021/06/03 01:40:52;;;;;;;;;20.75;20.75;;;;;;;;5006037;28;8870;-80
2021/06/03 01:43:22;;;;;;;;;30.00;26.25;;;;;;;;5013124;28;8872;-86
2021/06/03 01:45:49;;;;;;;;;23.25;22.00;;;;;;;;5008123;28;8870;-80
2021/06/03 01:48:18;;;;;;;;;24.25;22.25;;;;;;;;5012661;28;9763;-82
2021/06/03 01:50:46;;;;;;;;;24.00;21.00;;;;;;;;5017859;28;8872;-82
2021/06/03 01:53:13;;;;;;;;;18.25;18.25;;;;;;;;4998439;28;8875;-82
2021/06/03 01:55:39;;;;;;;;;22.75;22.75;;;;;;;;5000507;28;8920;-89
2021/06/03 01:58:07;;;;;;;;;24.25;23.75;;;;;;;;5000203;28;8902;-87
2021/06/03 02:00:35;;;;;;;;;20.75;19.50;;;;;;;;5006074;28;8977;-90
2021/06/03 02:03:02;;;;;;;;;22.00;20.50;;;;;;;;5013814;28;8905;-91
2021/06/03 02:05:30;;;;;;;;;26.50;24.75;;;;;;;;4998774;28;8888;-79
2021/06/03 02:07:57;;;;;;;;;26.00;26.00;;;;;;;;5013685;28;8870;-85
2021/06/03 02:10:25;;;;;;;;;24.75;22.75;;;;;;;;5003937;28;8876;-90
2021/06/03 02:12:56;;;;;;;;;24.75;24.75;;;;;;;;5006707;28;8898;-90
2021/06/03 02:15:25;;;;;;;;;22.50;22.50;;;;;;;;5006046;28;8993;-85
2021/06/03 02:17:56;;;;;;;;;27.75;24.50;;;;;;;;5004995;28;8853;-86
2021/06/03 02:20:28;;;;;;;;;28.75;25.25;;;;;;;;5006328;28;8897;-83
2021/06/03 02:22:56;;;;;;;;;23.25;22.00;;;;;;;;5003262;28;8986;-84
2021/06/03 02:25:24;;;;;;;;;20.25;20.25;;;;;;;;5003935;28;8903;-76
2021/06/03 02:27:51;;;;;;;;;27.75;27.75;;;;;;;;5002978;28;8905;-79
2021/06/03 02:30:20;;;;;;;;;25.50;25.50;;;;;;;;4996194;28;8995;-81
2021/06/03 02:32:47;;;;;;;;;27.00;24.50;;;;;;;;4991816;28;8890;-89
2021/06/03 02:35:16;;;;;;;;;23.75;23.75;;;;;;;;5006322;28;8894;-84
2021/06/03 02:37:44;;;;;;;;;22.00;20.75;;;;;;;;5003366;28;9570;-84
2021/06/03 02:40:14;;;;;;;;;23.50;21.75;;;;;;;;5004690;28;8877;-85
2021/06/03 02:42:43;;;;;;;;;25.00;25.00;;;;;;;;5007135;28;8961;-91
2021/06/03 02:45:12;;;;;;;;;21.75;21.75;;;;;;;;5000798;28;8981;-89
2021/06/03 02:47:39;;;;;;;;;22.50;21.50;;;;;;;;5001873;28;9018;-92
2021/06/03 02:50:08;;;;;;;;;27.50;22.75;;;;;;;;5014259;28;8874;-91
2021/06/03 02:52:37;;;;;;;;;23.75;20.50;;;;;;;;5012386;28;9044;-89
2021/06/03 02:55:05;;;;;;;;;21.75;20.75;;;;;;;;4997902;28;9002;-90
2021/06/03 02:57:33;;;;;;;;;22.75;22.75;;;;;;;;5000839;28;8869;-86
2021/06/03 02:59:59;;;;;;;;;23.25;23.25;;;;;;;;5004247;28;9005;-93
2021/06/03 03:02:26;;;;;;;;;25.25;21.75;;;;;;;;4996458;28;8829;-93
2021/06/03 03:04:53;;;;;;;;;24.25;24.00;;;;;;;;4991331;28;9007;-81
2021/06/03 03:07:20;;;;;;;;;22.75;21.75;;;;;;;;5003077;28;8934;-83
2021/06/03 03:09:48;;;;;;;;;20.75;20.50;;;;;;;;5003640;28;8902;-93
2021/06/03 03:12:14;;;;;;;;;20.50;19.00;;;;;;;;4993558;28;8862;-85
2021/06/03 03:14:41;;;;;;;;;17.25;17.25;;;;;;;;5004283;28;8894;-81
2021/06/03 03:17:08;;;;;;;;;17.50;17.00;;;;;;;;5003693;28;8850;-90
2021/06/03 03:19:36;;;;;;;;;23.00;23.00;;;;;;;;5005654;28;8882;-89
2021/06/03 03:22:03;;;;;;;;;21.00;21.00;;;;;;;;4996052;28;8882;-89
2021/06/03 03:24:29;;;;;;;;;20.50;20.50;;;;;;;;5002663;28;8898;-85
2021/06/03 03:26:58;;;;;;;;;20.75;20.25;;;;;;;;5002811;28;9712;-93
2021/06/03 03:29:25;;;;;;;;;17.00;17.00;;;;;;;;5000164;28;9001;-84
2021/06/03 03:31:51;;;;;;;;;23.50;23.50;;;;;;;;5005485;28;8838;-92
2021/06/03 03:34:18;;;;;;;;;22.00;22.00;;;;;;;;5007573;28;8894;-83
2021/06/03 03:36:45;;;;;;;;;19.00;16.25;;;;;;;;5009608;28;8856;-88
2021/06/03 03:39:13;;;;;;;;;22.75;22.75;;;;;;;;4994856;28;8920;-92
2021/06/03 03:41:40;;;;;;;;;22.00;19.50;;;;;;;;5002893;28;8963;-93
2021/06/03 03:44:08;;;;;;;;;21.25;20.50;;;;;;;;4999172;28;8875;-86
2021/06/03 03:46:36;;;;;;;;;19.50;18.75;;;;;;;;5013438;28;9622;-92
2021/06/03 03:49:03;;;;;;;;;20.25;20.25;;;;;;;;5012380;28;9773;-88
2021/06/03 03:51:30;;;;;;;;;18.25;17.75;;;;;;;;5008533;28;8858;-83
2021/06/03 03:53:57;;;;;;;;;24.00;24.00;;;;;;;;5002551;28;8870;-92
2021/06/03 03:56:24;;;;;;;;;18.50;18.50;;;;;;;;5005634;28;8932;-93
2021/06/03 03:58:51;;;;;;;;;27.25;25.50;;;;;;;;5002995;28;8886;-89
2021/06/03 04:01:20;;;;;;;;;27.25;24.75;;;;;;;;5009048;28;8893;-77
2021/06/03 04:03:47;;;;;;;;;19.75;19.75;;;;;;;;5002470;28;8874;-83
2021/06/03 04:06:13;;;;;;;;;21.75;19.75;;;;;;;;5003967;28;8987;-85
2021/06/03 04:08:40;;;;;;;;;20.75;20.75;;;;;;;;5003477;28;8881;-90
2021/06/03 04:11:07;;;;;;;;;23.00;22.75;;;;;;;;5007453;28;8871;-83
2021/06/03 04:13:35;;;;;;;;;21.00;19.75;;;;;;;;5007020;28;8856;-87
2021/06/03 04:16:03;;;;;;;;;20.00;20.00;;;;;;;;5011359;28;8938;-74
2021/06/03 04:18:31;;;;;;;;;27.00;25.00;;;;;;;;5014653;28;8848;-80
2021/06/03 04:21:00;;;;;;;;;21.00;21.00;;;;;;;;5004830;28;8890;-80
2021/06/03 04:23:27;;;;;;;;;22.25;21.50;;;;;;;;5003145;28;8853;-84
2021/06/03 04:25:54;;;;;;;;;24.75;24.25;;;;;;;;5002244;28;8893;-82
2021/06/03 04:28:21;;;;;;;;;19.25;18.75;;;;;;;;5002133;28;9000;-83
2021/06/03 04:30:48;;;;;;;;;19.00;19.00;;;;;;;;5001668;28;8873;-75
2021/06/03 04:33:20;;;;;;;;;25.25;24.00;;;;;;;;5006500;28;8862;-81
2021/06/03 04:35:50;;;;;;;;;26.00;23.75;;;;;;;;5003005;28;8882;-80
2021/06/03 04:38:17;;;;;;;;;27.25;24.25;;;;;;;;5001390;28;8918;-81
2021/06/03 04:40:43;;;;;;;;;26.25;24.25;;;;;;;;4998117;28;8898;-81
2021/06/03 04:43:10;;;;;;;;;26.50;25.25;;;;;;;;4998162;28;8875;-81
2021/06/03 04:45:37;;;;;;;;;26.75;25.25;;;;;;;;5003727;28;9019;-81
2021/06/03 04:48:05;;;;;;;;;20.75;19.75;;;;;;;;5007010;28;8870;-79
2021/06/03 04:50:33;;;;;;;;;19.50;18.75;;;;;;;;5008615;28;8871;-81
2021/06/03 04:53:02;;;;;;;;;26.75;23.00;;;;;;;;5008159;28;8842;-80
2021/06/03 04:55:29;;;;;;;;;24.25;24.25;;;;;;;;5004724;28;8920;-84
2021/06/03 04:57:56;;;;;;;;;25.25;21.50;;;;;;;;5010937;28;8864;-82
2021/06/03 05:00:26;;;;;;;;;25.50;23.00;;;;;;;;5005660;28;8787;-83
2021/06/03 05:02:53;;;;;;;;;25.50;22.25;;;;;;;;5007713;28;8920;-83
2021/06/03 05:05:21;;;;;;;;;27.50;24.00;;;;;;;;5005728;28;9466;-84
2021/06/03 05:07:48;;;;;;;;;25.00;22.75;;;;;;;;5007393;28;8932;-83
2021/06/03 05:10:18;;;;;;;;;27.00;25.75;;;;;;;;5005827;28;8893;-84
2021/06/03 05:12:45;;;;;;;;;25.00;22.75;;;;;;;;5006207;28;8988;-84
2021/06/03 05:15:14;;;;;;;;;23.00;23.00;;;;;;;;5003713;28;8848;-80
2021/06/03 05:17:41;;;;;;;;;27.75;26.50;;;;;;;;5004047;28;8912;-84
2021/06/03 05:20:09;;;;;;;;;27.50;22.50;;;;;;;;5007011;28;8892;-77
2021/06/03 05:22:37;;;;;;;;;27.25;25.50;;;;;;;;5013746;28;8988;-75
2021/06/03 05:25:05;;;;;;;;;27.50;27.00;;;;;;;;5005040;28;8901;-77
2021/06/03 05:27:33;;;;;;;;;23.25;22.25;;;;;;;;5005476;28;8875;-84
2021/06/03 05:30:00;;;;;;;;;28.75;27.00;;;;;;;;5003240;28;8985;-75
2021/06/03 05:32:27;;;;;;;;;27.25;25.75;;;;;;;;5003933;28;8939;-74
2021/06/03 05:34:54;;;;;;;;;24.50;24.50;;;;;;;;5002406;28;9030;-75
2021/06/03 05:37:21;;;;;;;;;34.75;30.75;;;;;;;;4999483;28;8901;-75
2021/06/03 05:39:48;;;;;;;;;29.75;27.25;;;;;;;;5003962;28;8862;-75
2021/06/03 05:42:14;;;;;;;;;24.75;24.75;;;;;;;;4993307;28;8877;-78
2021/06/03 05:44:42;;;;;;;;;30.00;27.00;;;;;;;;4995673;28;8961;-76
2021/06/03 05:47:09;;;;;;;;;28.75;28.00;;;;;;;;5002660;28;8974;-76
2021/06/03 05:49:36;;;;;;;;;30.25;26.75;;;;;;;;5000655;28;8886;-77
2021/06/03 05:52:04;;;;;;;;;29.50;26.75;;;;;;;;4998185;28;8882;-76
2021/06/03 05:54:31;;;;;;;;;28.25;27.75;;;;;;;;5004422;28;8970;-77
2021/06/03 05:56:58;;;;;;;;;29.00;29.00;;;;;;;;4997918;28;8866;-77
2021/06/03 05:59:26;;;;;;;;;27.75;25.25;;;;;;;;5003690;28;8871;-77
2021/06/03 06:01:59;;;;;;;;;25.50;25.25;;;;;;;;5003908;28;9407;-77
2021/06/03 06:07:10;;;;;;;;;31.50;29.00;;;;;;;;5005216;28;8832;-76
2021/06/03 06:09:37;;;;;;;;;34.00;31.75;;;;;;;;5003853;28;9720;-75
2021/06/03 06:12:05;;;;;;;;;36.25;33.50;;;;;;;;5005049;28;8862;-74
2021/06/03 06:14:32;;;;;;;;;35.00;31.50;;;;;;;;5003680;28;8943;-75
2021/06/03 06:17:00;;;;;;;;;35.50;32.50;;;;;;;;5004561;28;9141;-75
2021/06/03 06:19:27;;;;;;;;;41.50;34.00;;;;;;;;5004398;28;8867;-75
2021/06/03 06:21:54;;;;;;;;;43.00;34.25;;;;;;;;5004803;28;8933;-75
2021/06/03 06:24:21;;;;;;;;;32.50;29.25;;;;;;;;5004530;28;8948;-76
2021/06/03 06:26:47;;;;;;;;;38.50;33.25;;;;;;;;5003411;28;9748;-76
2021/06/03 06:29:14;;;;;;;;;33.75;31.50;;;;;;;;5004538;28;8862;-76
2021/06/03 06:31:41;;;;;;;;;33.25;30.75;;;;;;;;5002523;28;8860;-77
2021/06/03 06:34:09;;;;;;;;;33.75;31.50;;;;;;;;5002360;28;9029;-77
2021/06/03 06:36:36;;;;;;;;;28.75;28.25;;;;;;;;4999113;28;8886;-76
2021/06/03 06:39:04;;;;;;;;;33.00;31.25;;;;;;;;5005224;28;8886;-76
2021/06/03 06:41:31;;;;;;;;;31.50;30.50;;;;;;;;5004013;28;8880;-76
2021/06/03 06:43:57;;;;;;;;;30.75;29.00;;;;;;;;5003052;28;8887;-78
2021/06/03 06:46:24;;;;;;;;;33.00;28.75;;;;;;;;5000687;28;8894;-76
2021/06/03 06:48:51;;;;;;;;;30.75;29.25;;;;;;;;5000095;28;8870;-76
2021/06/03 06:51:19;;;;;;;;;24.25;22.25;;;;;;;;5002090;28;8975;-76
2021/06/03 06:53:46;;;;;;;;;32.00;25.00;;;;;;;;4990279;28;8899;-75
2021/06/03 06:56:13;;;;;;;;;28.00;27.75;;;;;;;;5000882;28;8906;-75
2021/06/03 06:58:39;;;;;;;;;27.75;27.75;;;;;;;;5000695;28;8973;-75
2021/06/03 07:01:06;;;;;;;;;22.25;22.25;;;;;;;;5002333;28;9646;-76
2021/06/03 07:03:33;;;;;;;;;31.75;30.00;;;;;;;;5004861;28;8912;-74
2021/06/03 07:06:00;;;;;;;;;31.75;28.00;;;;;;;;4999331;28;8904;-74
2021/06/03 07:08:28;;;;;;;;;35.75;32.00;;;;;;;;4998484;28;8979;-73
2021/06/03 07:10:55;;;;;;;;;32.75;30.00;;;;;;;;5000487;28;8883;-74
2021/06/03 07:13:22;;;;;;;;;27.00;27.00;;;;;;;;5001315;28;8868;-74
2021/06/03 07:15:48;;;;;;;;;25.25;25.00;;;;;;;;4995161;28;8874;-73
2021/06/03 07:18:16;;;;;;;;;28.75;28.75;;;;;;;;5000215;28;8882;-74
2021/06/03 07:20:43;;;;;;;;;30.00;27.00;;;;;;;;4998977;28;8874;-74
2021/06/03 07:23:10;;;;;;;;;31.25;27.25;;;;;;;;4999712;28;8890;-75
2021/06/03 07:25:40;;;;;;;;;25.80;24.00;;;;;;;;4995831;28;8871;-74
2021/06/03 07:28:08;;;;;;;;;31.75;27.50;;;;;;;;5000283;28;8862;-74
2021/06/03 07:30:35;;;;;;;;;27.20;25.00;;;;;;;;4996386;28;8802;-74
2021/06/03 07:33:03;;;;;;;;;31.25;28.75;;;;;;;;5001270;28;8931;-73
2021/06/03 07:35:32;;;;;;;;;24.40;24.40;;;;;;;;5002936;28;8890;-73
2021/06/03 07:37:59;;;;;;;;;29.80;27.60;;;;;;;;5003750;28;8980;-73
2021/06/03 07:40:27;;;;;;;;;28.60;26.80;;;;;;;;4995593;28;8905;-74
2021/06/03 07:42:56;;;;;;;;;23.80;23.40;;;;;;;;5000381;28;8858;-73
2021/06/03 07:45:25;;;;;;;;;27.60;26.00;;;;;;;;5002095;28;8888;-74
2021/06/03 07:47:53;;;;;;;;;30.75;29.50;;;;;;;;5003609;28;8896;-73
2021/06/03 07:50:20;;;;;;;;;33.40;29.40;;;;;;;;5000388;28;9002;-74
2021/06/03 07:52:47;;;;;;;;;27.00;27.00;;;;;;;;5002382;28;8893;-73
2021/06/03 07:55:15;;;;;;;;;27.00;25.20;;;;;;;;5003329;28;8908;-74
2021/06/03 07:57:44;;;;;;;;;24.60;24.60;;;;;;;;5001226;28;8874;-73
2021/06/03 08:00:15;;;;;;;;;26.40;26.40;;;;;;;;5002873;28;8870;-74
2021/06/03 08:02:44;;;;;;;;;29.00;28.60;;;;;;;;5001416;28;8874;-74
2021/06/03 08:05:11;;;;;;;;;29.80;27.60;;;;;;;;5004034;28;8890;-74
2021/06/03 08:07:38;;;;;;;;;27.00;27.00;;;;;;;;5001473;28;9498;-74
2021/06/03 08:10:07;;;;;;;;;26.40;26.40;;;;;;;;5001605;28;9634;-74
2021/06/03 08:12:34;;;;;;;;;22.20;22.20;;;;;;;;4997686;28;8860;-74
2021/06/03 08:15:00;;;;;;;;;29.60;27.80;;;;;;;;5002397;28;8886;-74
2021/06/03 08:17:29;;;;;;;;;25.80;25.60;;;;;;;;4998858;28;8936;-74
2021/06/03 08:19:55;;;;;;;;;29.40;27.40;;;;;;;;4991449;28;8900;-75
2021/06/03 08:22:22;;;;;;;;;24.60;24.60;;;;;;;;5005024;28;8856;-73
2021/06/03 08:24:49;;;;;;;;;27.00;27.00;;;;;;;;5002728;28;9645;-74
2021/06/03 08:27:16;;;;;;;;;28.80;28.80;;;;;;;;4996467;28;8870;-74
2021/06/03 08:29:43;;;;;;;;;25.40;24.20;;;;;;;;5005621;28;8867;-74
2021/06/03 08:32:10;;;;;;;;;27.00;26.40;;;;;;;;5006211;28;8866;-74
2021/06/03 08:34:38;;;;;;;;;28.20;27.40;;;;;;;;5005154;28;8881;-74
2021/06/03 08:37:05;;;;;;;;;28.60;25.80;;;;;;;;5005027;28;8884;-74
2021/06/03 08:39:32;;;;;;;;;23.00;23.00;;;;;;;;5007648;28;8866;-74
2021/06/03 08:41:59;;;;;;;;;24.80;23.60;;;;;;;;5003918;28;8886;-74
2021/06/03 08:44:28;;;;;;;;;24.40;24.20;;;;;;;;5007060;28;9351;-75
2021/06/03 08:46:55;;;;;;;;;27.60;27.00;;;;;;;;4993129;28;8890;-75
2021/06/03 08:49:22;;;;;;;;;25.00;24.60;;;;;;;;4999045;28;8890;-74
2021/06/03 08:51:51;;;;;;;;;28.40;25.40;;;;;;;;5000371;28;9048;-75
2021/06/03 08:54:18;;;;;;;;;29.20;27.20;;;;;;;;4994355;28;8980;-75
2021/06/03 08:56:45;;;;;;;;;25.80;25.80;;;;;;;;5006526;28;8968;-74
2021/06/03 08:59:13;;;;;;;;;25.80;25.80;;;;;;;;5001761;28;8886;-74
2021/06/03 09:01:41;;;;;;;;;22.00;20.20;;;;;;;;4994861;28;9604;-73
2021/06/03 09:04:08;;;;;;;;;21.80;21.80;;;;;;;;5003288;28;9854;-75
2021/06/03 09:06:35;;;;;;;;;23.60;23.00;;;;;;;;5004353;28;8894;-75
2021/06/03 09:09:06;;;;;;;;;19.40;19.40;;;;;;;;5004381;28;8884;-75
2021/06/03 09:11:34;;;;;;;;;21.40;21.20;;;;;;;;5005453;28;8932;-75
2021/06/03 09:14:04;;;;;;;;;22.40;21.60;;;;;;;;5006708;28;8842;-75
2021/06/03 09:16:32;;;;;;;;;15.40;14.00;;;;;;;;5004465;28;8914;-76
2021/06/03 09:19:06;;;;;;;;;22.00;21.60;;;;;;;;5005305;28;8896;-76
2021/06/03 09:21:35;;;;;;;;;18.00;18.00;;;;;;;;5005391;28;9436;-76
2021/06/03 09:24:06;;;;;;;;;22.20;22.20;;;;;;;;5001533;28;8878;-76
2021/06/03 09:26:35;;;;;;;;;19.40;19.00;;;;;;;;5003680;28;8874;-76
2021/06/03 09:29:03;;;;;;;;;25.40;24.20;;;;;;;;5004471;28;8890;-76
2021/06/03 09:31:31;;;;;;;;;21.20;21.20;;;;;;;;5005662;28;8819;-76
2021/06/03 09:34:03;;;;;;;;;20.60;18.80;;;;;;;;5004639;28;8882;-76
2021/06/03 09:36:37;;;;;;;;;25.20;22.00;;;;;;;;5004992;28;8855;-76
2021/06/03 09:39:24;;;;;;;;;22.60;22.60;;;;;;;;5005422;28;8894;-76
2021/06/03 09:41:55;;;;;;;;;25.60;25.60;;;;;;;;5004025;28;8917;-76
2021/06/03 09:44:28;;;;;;;;;25.60;24.00;;;;;;;;5006129;28;8956;-76
2021/06/03 09:46:57;;;;;;;;;23.60;22.80;;;;;;;;4998150;28;9087;-76
2021/06/03 09:49:26;;;;;;;;;20.20;19.20;;;;;;;;5005654;28;8886;-76
2021/06/03 09:51:56;;;;;;;;;25.00;23.60;;;;;;;;5004792;28;8972;-76
2021/06/03 09:54:25;;;;;;;;;22.00;22.00;;;;;;;;5005270;28;8863;-76
2021/06/03 09:56:55;;;;;;;;;24.40;23.80;;;;;;;;5005455;28;9694;-76
2021/06/03 09:59:28;;;;;;;;;21.00;21.00;;;;;;;;5004389;28;9675;-76
2021/06/03 10:01:57;;;;;;;;;17.00;17.00;;;;;;;;5005236;28;8803;-77
2021/06/03 10:04:29;;;;;;;;;21.20;19.40;;;;;;;;5015195;28;8888;-77
2021/06/03 10:07:07;;;;;;;;;26.40;23.60;;;;;;;;5005424;28;8870;-77
2021/06/03 10:09:57;;;;;;;;;21.00;20.80;;;;;;;;4991771;28;10156;-76
2021/06/03 10:12:43;;;;;;;;;18.40;17.20;;;;;;;;5004734;28;8894;-76
2021/06/03 10:15:42;;;;;;;;;19.40;17.20;;;;;;;;5005171;28;8959;-77
2021/06/03 10:18:11;;;;;;;;;21.80;20.20;;;;;;;;5003421;28;8847;-77
2021/06/03 10:20:40;;;;;;;;;21.60;21.60;;;;;;;;5008121;28;9730;-77
2021/06/03 10:23:09;;;;;;;;;23.20;23.20;;;;;;;;5005058;28;8874;-77
2021/06/03 10:25:39;;;;;;;;;21.40;21.40;;;;;;;;4995140;28;8878;-77
2021/06/03 10:28:09;;;;;;;;;22.60;20.80;;;;;;;;5003750;28;8889;-78
2021/06/03 10:30:38;;;;;;;;;16.00;14.20;;;;;;;;5003411;28;8786;-78
2021/06/03 10:33:07;;;;;;;;;23.00;21.80;;;;;;;;5000198;28;8894;-77
2021/06/03 10:35:35;;;;;;;;;17.60;17.40;;;;;;;;5003312;28;8937;-77
2021/06/03 10:38:05;;;;;;;;;14.20;14.20;;;;;;;;5008977;28;9583;-76
2021/06/03 10:40:34;;;;;;;;;20.80;20.80;;;;;;;;5007462;28;8869;-78
2021/06/03 10:43:03;;;;;;;;;22.40;20.60;;;;;;;;5004433;28;8901;-77
2021/06/03 10:45:31;;;;;;;;;19.20;18.80;;;;;;;;5010046;28;8854;-76
2021/06/03 10:48:01;;;;;;;;;18.00;18.00;;;;;;;;5003278;28;8924;-76
2021/06/03 10:50:31;;;;;;;;;21.40;21.40;;;;;;;;5007588;28;8882;-77
2021/06/03 10:53:05;;;;;;;;;17.20;17.20;;;;;;;;5004506;28;8905;-78
2021/06/03 10:55:36;;;;;;;;;20.20;20.00;;;;;;;;5003096;28;8866;-82
2021/06/03 10:58:05;;;;;;;;;18.80;18.80;;;;;;;;4998703;28;8877;-79
2021/06/03 11:00:36;;;;;;;;;16.80;16.60;;;;;;;;4996614;28;8791;-79
2021/06/03 11:03:06;;;;;;;;;21.20;20.20;;;;;;;;5001668;28;8858;-79
2021/06/03 11:05:35;;;;;;;;;17.00;16.80;;;;;;;;5000176;28;8924;-78
2021/06/03 11:08:22;;;;;;;;;21.80;20.20;;;;;;;;5004350;28;8963;-76
2021/06/03 11:10:49;;;;;;;;;21.00;19.40;;;;;;;;5004120;28;8866;-79
2021/06/03 11:13:19;;;;;;;;;18.80;18.80;;;;;;;;4999047;28;8866;-76
2021/06/03 11:16:04;;;;;;;;;21.00;20.80;;;;;;;;5003193;28;8882;-76
2021/06/03 11:19:11;;;;;;;;;19.00;18.20;;;;;;;;5002521;28;8847;-76
2021/06/03 11:22:02;;;;;;;;;18.40;18.40;;;;;;;;5003533;28;8962;-74
2021/06/03 11:24:49;;;;;;;;;23.00;23.00;;;;;;;;4999698;28;8857;-74
2021/06/03 11:27:22;;;;;;;;;27.80;26.20;;;;;;;;5005747;28;8901;-79
2021/06/03 11:30:12;;;;;;;;;21.00;19.60;;;;;;;;4995888;28;8853;-76
2021/06/03 11:32:42;;;;;;;;;25.00;23.40;;;;;;;;4992038;28;8868;-77
2021/06/03 11:35:12;;;;;;;;;24.80;23.00;;;;;;;;5003050;28;8866;-78
2021/06/03 11:37:48;;;;;;;;;21.40;19.20;;;;;;;;4993252;28;8995;-78
2021/06/03 11:40:19;;;;;;;;;23.20;21.20;;;;;;;;4990627;28;8881;-76
2021/06/03 11:42:48;;;;;;;;;22.60;22.60;;;;;;;;4999867;28;8874;-76
2021/06/03 11:45:29;;;;;;;;;25.20;25.20;;;;;;;;4998517;28;8874;-76
2021/06/03 11:48:14;;;;;;;;;23.60;23.60;;;;;;;;4992940;28;8894;-76
2021/06/03 11:51:04;;;;;;;;;21.60;21.60;;;;;;;;4994525;28;9012;-77
2021/06/03 11:53:33;;;;;;;;;23.20;22.20;;;;;;;;5003022;28;9022;-76
2021/06/03 11:56:19;;;;;;;;;24.60;23.60;;;;;;;;4990763;28;8882;-76
2021/06/03 11:58:58;;;;;;;;;21.60;21.60;;;;;;;;4999445;28;8842;-78
2021/06/03 12:01:37;;;;;;;;;20.80;19.60;;;;;;;;5001882;28;8939;-76
2021/06/03 12:04:19;;;;;;;;;21.80;20.60;;;;;;;;5005949;28;8898;-78
2021/06/03 12:06:48;;;;;;;;;22.00;19.00;;;;;;;;5006780;28;8920;-77
2021/06/03 12:09:26;;;;;;;;;17.00;17.00;;;;;;;;5007323;28;8876;-78
2021/06/03 12:11:54;;;;;;;;;22.00;22.00;;;;;;;;5001890;28;8898;-77
2021/06/03 12:14:23;;;;;;;;;20.20;20.20;;;;;;;;5006193;28;8979;-77
2021/06/03 12:16:53;;;;;;;;;19.40;18.20;;;;;;;;5007681;28;9005;-77
2021/06/03 12:19:22;;;;;;;;;21.20;20.20;;;;;;;;5005515;28;8890;-77
2021/06/03 12:21:53;;;;;;;;;21.60;20.80;;;;;;;;5007575;28;8874;-78
2021/06/03 12:24:32;;;;;;;;;17.40;17.40;;;;;;;;5006013;28;8897;-77
2021/06/03 12:26:59;;;;;;;;;18.80;18.80;;;;;;;;5007073;28;8874;-78
2021/06/03 12:29:28;;;;;;;;;14.60;14.60;;;;;;;;5007866;28;8866;-78
2021/06/03 12:31:56;;;;;;;;;21.80;20.00;;;;;;;;5005873;28;8846;-78
2021/06/03 12:34:25;;;;;;;;;15.20;15.00;;;;;;;;5007092;28;8908;-77
2021/06/03 12:36:52;;;;;;;;;18.60;18.60;;;;;;;;5006120;28;8976;-77
2021/06/03 12:39:19;;;;;;;;;18.60;18.60;;;;;;;;5006985;28;9017;-81
2021/06/03 12:41:46;;;;;;;;;18.60;17.80;;;;;;;;5006663;28;8906;-77
2021/06/03 12:44:14;;;;;;;;;17.00;17.00;;;;;;;;5006905;28;9010;-78
2021/06/03 12:46:43;;;;;;;;;14.60;14.60;;;;;;;;5006985;28;8951;-77
2021/06/03 12:49:12;;;;;;;;;18.40;16.40;;;;;;;;5006132;28;9454;-78
2021/06/03 12:51:48;;;;;;;;;18.60;14.40;;;;;;;;5006745;28;8876;-78
2021/06/03 12:54:16;;;;;;;;;15.20;15.20;;;;;;;;5006224;28;8981;-77
2021/06/03 12:56:49;;;;;;;;;22.00;17.40;;;;;;;;5007079;28;8902;-77
2021/06/03 12:59:23;;;;;;;;;16.40;16.40;;;;;;;;5006064;28;8842;-77
2021/06/03 13:01:58;;;;;;;;;16.00;16.00;;;;;;;;5005677;28;9604;-77
2021/06/03 13:04:33;;;;;;;;;14.40;13.00;;;;;;;;5006589;28;8843;-77
2021/06/03 13:07:00;;;;;;;;;18.00;16.40;;;;;;;;4994789;28;9672;-76
2021/06/03 13:09:27;;;;;;;;;16.60;16.00;;;;;;;;5006629;28;8894;-77
2021/06/03 13:11:54;;;;;;;;;13.80;13.80;;;;;;;;5015608;28;8890;-77
2021/06/03 13:14:23;;;;;;;;;19.20;18.80;;;;;;;;5006289;28;8996;-76
2021/06/03 13:16:52;;;;;;;;;5.60;5.60;;;;;;;;5006340;28;8870;-76
2021/06/03 13:19:20;;;;;;;;;15.40;14.20;;;;;;;;5004193;28;8923;-76
2021/06/03 13:21:54;;;;;;;;;15.60;15.60;;;;;;;;5006698;28;8878;-77
2021/06/03 13:24:24;;;;;;;;;17.60;17.60;;;;;;;;5004893;28;8894;-77
2021/06/03 13:26:51;;;;;;;;;18.00;17.80;;;;;;;;5007328;28;9000;-78
2021/06/03 13:29:18;;;;;;;;;15.40;13.00;;;;;;;;5005091;28;9000;-78
2021/06/03 13:31:45;;;;;;;;;21.60;18.80;;;;;;;;5005686;28;8815;-77
2021/06/03 13:34:31;;;;;;;;;12.40;12.40;;;;;;;;5006172;28;8866;-78
2021/06/03 13:37:08;;;;;;;;;16.60;16.20;;;;;;;;5000074;28;8922;-78
2021/06/03 13:39:37;;;;;;;;;15.20;15.20;;;;;;;;5004563;28;8884;-78
2021/06/03 13:42:11;;;;;;;;;14.00;14.00;;;;;;;;5004775;28;8886;-79
2021/06/03 13:44:56;;;;;;;;;15.80;15.20;;;;;;;;5006334;28;9011;-80
2021/06/03 13:47:49;;;;;;;;;15.00;14.00;;;;;;;;4999170;28;8886;-77
2021/06/03 13:50:33;;;;;;;;;21.00;17.60;;;;;;;;5004305;28;8882;-78
2021/06/03 13:53:04;;;;;;;;;16.60;16.60;;;;;;;;5005984;28;8997;-80
2021/06/03 13:55:33;;;;;;;;;12.60;12.60;;;;;;;;5003981;28;8890;-77
2021/06/03 13:58:01;;;;;;;;;15.40;15.40;;;;;;;;5003439;28;8862;-77
2021/06/03 14:00:34;;;;;;;;;17.20;16.20;;;;;;;;5001303;28;8775;-80
2021/06/03 14:03:07;;;;;;;;;16.00;16.00;;;;;;;;5002239;28;8862;-78
2021/06/03 14:05:36;;;;;;;;;16.80;16.80;;;;;;;;5005231;28;8859;-80
2021/06/03 14:08:16;;;;;;;;;17.00;17.00;;;;;;;;5004230;28;8895;-78
2021/06/03 14:11:23;;;;;;;;;16.60;15.60;;;;;;;;5004784;28;8963;-77
2021/06/03 14:14:01;;;;;;;;;16.20;14.60;;;;;;;;4998307;28;9632;-78
2021/06/03 14:16:40;;;;;;;;;13.40;11.00;;;;;;;;5003781;28;8896;-78
2021/06/03 14:19:09;;;;;;;;;18.00;18.00;;;;;;;;5006161;28;8878;-78
2021/06/03 14:21:36;;;;;;;;;17.00;17.00;;;;;;;;5004393;28;8879;-77
2021/06/03 14:24:06;;;;;;;;;14.60;13.40;;;;;;;;5004917;28;9696;-82
2021/06/03 14:26:39;;;;;;;;;17.60;17.60;;;;;;;;5001566;28;8924;-78
2021/06/03 14:29:06;;;;;;;;;16.60;16.60;;;;;;;;5001237;28;8884;-76
2021/06/03 14:31:43;;;;;;;;;20.20;18.40;;;;;;;;5004199;28;8833;-80
2021/06/03 14:34:28;;;;;;;;;17.20;17.20;;;;;;;;5004293;28;8890;-77
2021/06/03 14:36:58;;;;;;;;;17.00;14.00;;;;;;;;5000010;28;8871;-75
2021/06/03 14:39:59;;;;;;;;;17.00;16.20;;;;;;;;5004221;28;8846;-77
2021/06/03 14:42:38;;;;;;;;;14.60;14.60;;;;;;;;4961389;28;8863;-76
2021/06/03 14:45:18;;;;;;;;;15.20;14.80;;;;;;;;4963335;28;8901;-75
2021/06/03 14:47:45;;;;;;;;;15.00;15.00;;;;;;;;4988321;28;8901;-77
2021/06/03 14:50:15;;;;;;;;;17.40;17.40;;;;;;;;5004366;28;8906;-76